Terminal Aerodrome Forecast
Issued by NWS Jackson, KY

Home | Current Version | Previous Version | Text Only | Print | Product List | Glossary On
Versions: 1 2 3 4 5 6 7 8 9 10 11 12 13 14 15 16 17 18 19 20
000
FTUS43 KJKL 042320
TAFLOZ
TAF
KLOZ 042320Z 0500/0524 20004KT 3SM -DZ SCT008 OVC020
     FM050600 26004KT 2SM -DZ BR OVC003
     FM051000 29004KT 2SM BR OVC008
     FM051500 VRB03KT P6SM BKN015
     FM051800 06004KT P6SM BKN040=

USA.gov is the U.S. government's official web portal to all federal, state and local government web resources and services.